Time;durP1;ratioP1;P1;durP2;ratioP2;P2;SDS_P1;SDS_P2;PMS_P1;PMS_P2;Temp;Humidity;BMP_temperature;BMP_pressure;BME280_temperature;BME280_humidity;BME280_pressure;Samples;Min_cycle;Max_cycle;Signal;HPM_P1;HPM_P2
2020/12/03 00:00:54;;;;;;;48.67;21.63;;;;;;;;;;4991425;28;20055;-61
2020/12/03 00:03:39;;;;;;;47.83;22.55;;;;;;;;;;4991422;28;20058;-61
2020/12/03 00:06:28;;;;;;;46.60;23.40;;;;;;;;;;4990792;28;20054;-61
2020/12/03 00:08:57;;;;;;;48.17;23.83;;;;;;;;;;4990580;28;20047;-61
2020/12/03 00:11:26;;;;;;;52.00;21.73;;;;;;;;;;4991361;28;20050;-60
2020/12/03 00:13:53;;;;;;;47.13;21.80;;;;;;;;;;4991134;28;20054;-61
2020/12/03 00:16:19;;;;;;;50.35;23.90;;;;;;;;;;4990796;28;20047;-61
2020/12/03 00:18:45;;;;;;;45.58;21.17;;;;;;;;;;4990329;28;20053;-61
2020/12/03 00:21:13;;;;;;;47.60;23.20;;;;;;;;;;4974899;28;20054;-61
2020/12/03 00:23:40;;;;;;;47.53;21.38;;;;;;;;;;4990717;28;20077;-60
2020/12/03 00:26:07;;;;;;;52.63;23.23;;;;;;;;;;4990250;28;20409;-61
2020/12/03 00:28:38;;;;;;;50.10;22.33;;;;;;;;;;4990081;28;20047;-62
2020/12/03 00:31:04;;;;;;;46.35;21.23;;;;;;;;;;4991076;28;20050;-61
2020/12/03 00:33:31;;;;;;;44.65;20.92;;;;;;;;;;4990867;28;20053;-61
2020/12/03 00:35:57;;;;;;;50.17;24.30;;;;;;;;;;4990257;28;20061;-62
2020/12/03 00:38:24;;;;;;;50.88;22.70;;;;;;;;;;4990104;28;20242;-61
2020/12/03 00:40:50;;;;;;;47.42;22.60;;;;;;;;;;4990826;28;20578;-61
2020/12/03 00:43:17;;;;;;;51.38;22.70;;;;;;;;;;4990636;28;20563;-61
2020/12/03 00:45:46;;;;;;;49.00;21.73;;;;;;;;;;4989851;28;20046;-61
2020/12/03 00:48:17;;;;;;;47.15;22.70;;;;;;;;;;4990262;28;20054;-62
2020/12/03 00:50:43;;;;;;;44.35;21.45;;;;;;;;;;4990447;28;20047;-61
2020/12/03 00:53:10;;;;;;;45.08;21.88;;;;;;;;;;4989611;28;20042;-61
2020/12/03 00:55:36;;;;;;;48.42;21.20;;;;;;;;;;4989653;28;20057;-61
2020/12/03 00:58:03;;;;;;;46.00;21.67;;;;;;;;;;4990339;28;20054;-61
2020/12/03 01:00:29;;;;;;;47.15;21.70;;;;;;;;;;4990079;28;20069;-61
2020/12/03 01:02:55;;;;;;;47.45;21.38;;;;;;;;;;4990589;28;20057;-60
2020/12/03 01:05:21;;;;;;;51.67;22.58;;;;;;;;;;4989689;28;20440;-61
2020/12/03 01:07:48;;;;;;;44.95;21.60;;;;;;;;;;4989920;28;20049;-61
2020/12/03 01:10:26;;;;;;;44.13;21.80;;;;;;;;;;4990180;28;20053;-61
2020/12/03 01:12:52;;;;;;;54.10;23.02;;;;;;;;;;4990198;28;20524;-61
2020/12/03 01:15:19;;;;;;;48.17;21.95;;;;;;;;;;4989678;28;20054;-61
2020/12/03 01:17:46;;;;;;;49.80;21.92;;;;;;;;;;4989784;28;20058;-61
2020/12/03 01:20:16;;;;;;;46.22;23.15;;;;;;;;;;4989994;28;20507;-61
2020/12/03 01:22:42;;;;;;;43.60;21.17;;;;;;;;;;4989835;28;20054;-61
2020/12/03 01:25:09;;;;;;;47.35;22.25;;;;;;;;;;4989773;28;20057;-61
2020/12/03 01:27:36;;;;;;;45.45;21.75;;;;;;;;;;4989566;28;20428;-61
2020/12/03 01:30:09;;;;;;;44.40;20.88;;;;;;;;;;4989801;28;20056;-60
2020/12/03 01:32:36;;;;;;;46.35;20.73;;;;;;;;;;4989688;28;20046;-61
2020/12/03 01:35:07;;;;;;;46.63;22.20;;;;;;;;;;4990075;28;20057;-62
2020/12/03 01:37:34;;;;;;;50.30;22.52;;;;;;;;;;4989649;28;20054;-61
2020/12/03 01:40:00;;;;;;;43.50;22.25;;;;;;;;;;4989695;28;20054;-61
2020/12/03 01:42:26;;;;;;;48.70;22.75;;;;;;;;;;4989752;28;20050;-61
2020/12/03 01:44:53;;;;;;;56.13;23.52;;;;;;;;;;4989926;28;20058;-61
2020/12/03 01:47:35;;;;;;;44.90;21.27;;;;;;;;;;4988974;28;20046;-61
2020/12/03 01:50:03;;;;;;;50.60;23.67;;;;;;;;;;4974942;28;20054;-60
2020/12/03 01:52:29;;;;;;;56.90;23.63;;;;;;;;;;4989818;28;20485;-61
2020/12/03 01:54:56;;;;;;;49.35;22.40;;;;;;;;;;4989962;28;20124;-61
2020/12/03 01:57:42;;;;;;;47.33;23.30;;;;;;;;;;4989026;28;20054;-60
2020/12/03 02:00:18;;;;;;;49.08;22.88;;;;;;;;;;4985957;28;20054;-61
2020/12/03 02:02:51;;;;;;;48.17;22.75;;;;;;;;;;4989613;28;20054;-61
2020/12/03 02:05:26;;;;;;;53.95;23.55;;;;;;;;;;4992841;28;20054;-61
2020/12/03 02:07:52;;;;;;;48.05;22.52;;;;;;;;;;4973990;28;20406;-61
2020/12/03 02:10:21;;;;;;;53.08;24.92;;;;;;;;;;4990222;28;20116;-61
2020/12/03 02:12:48;;;;;;;56.53;25.15;;;;;;;;;;4973807;28;20561;-61
2020/12/03 02:15:15;;;;;;;58.65;25.67;;;;;;;;;;4989823;28;20066;-61
2020/12/03 02:17:41;;;;;;;47.80;23.15;;;;;;;;;;4991821;28;20050;-62
2020/12/03 02:20:16;;;;;;;49.72;23.40;;;;;;;;;;4993362;28;20061;-61
2020/12/03 02:22:43;;;;;;;51.33;24.08;;;;;;;;;;4992822;28;20537;-62
2020/12/03 02:25:10;;;;;;;50.88;24.10;;;;;;;;;;4992754;28;20054;-61
2020/12/03 02:27:37;;;;;;;53.45;23.38;;;;;;;;;;4994041;28;20051;-61
2020/12/03 02:30:06;;;;;;;58.17;24.85;;;;;;;;;;4993381;28;20050;-61
2020/12/03 02:32:32;;;;;;;53.35;22.75;;;;;;;;;;4992930;28;20062;-61
2020/12/03 02:34:59;;;;;;;50.72;23.67;;;;;;;;;;4993190;28;20058;-61
2020/12/03 02:37:27;;;;;;;51.58;22.50;;;;;;;;;;4991886;28;20046;-61
2020/12/03 02:39:54;;;;;;;54.88;24.23;;;;;;;;;;4992993;28;20443;-61
2020/12/03 02:42:20;;;;;;;55.65;26.15;;;;;;;;;;4993173;28;20054;-61
2020/12/03 02:44:48;;;;;;;53.13;23.80;;;;;;;;;;4992684;28;20503;-62
2020/12/03 02:47:16;;;;;;;52.70;23.35;;;;;;;;;;4991710;28;20050;-61
2020/12/03 02:49:43;;;;;;;54.00;25.73;;;;;;;;;;4992485;28;20519;-61
2020/12/03 02:59:04;;;;;;;52.13;23.48;;;;;;;;;;4972496;28;20054;-61
2020/12/03 03:01:30;;;;;;;51.58;23.92;;;;;;;;;;4988822;28;20051;-60
2020/12/03 03:03:56;;;;;;;56.72;23.38;;;;;;;;;;4988614;28;20059;-62
2020/12/03 03:06:22;;;;;;;59.63;24.83;;;;;;;;;;4972466;28;20069;-61
2020/12/03 03:08:49;;;;;;;53.10;23.77;;;;;;;;;;4988908;28;20062;-61
2020/12/03 03:11:15;;;;;;;53.50;23.17;;;;;;;;;;4972794;28;20042;-61
2020/12/03 03:13:42;;;;;;;56.53;23.90;;;;;;;;;;4972696;28;20059;-61
2020/12/03 03:16:08;;;;;;;47.58;23.42;;;;;;;;;;4971604;28;20066;-61
2020/12/03 03:18:34;;;;;;;55.78;25.10;;;;;;;;;;4972218;28;20047;-61
2020/12/03 03:21:00;;;;;;;54.78;24.35;;;;;;;;;;4972708;28;20058;-61
2020/12/03 03:23:26;;;;;;;50.25;24.52;;;;;;;;;;4988758;28;20059;-61
2020/12/03 03:25:52;;;;;;;54.03;23.02;;;;;;;;;;4972236;28;20047;-61
2020/12/03 03:28:19;;;;;;;49.35;22.77;;;;;;;;;;4972442;28;20062;-61
2020/12/03 03:30:45;;;;;;;47.25;22.20;;;;;;;;;;4972338;28;20488;-60
2020/12/03 03:33:11;;;;;;;46.22;21.90;;;;;;;;;;4972030;28;20047;-60
2020/12/03 03:35:37;;;;;;;51.47;23.40;;;;;;;;;;4971734;28;20054;-61
2020/12/03 03:38:03;;;;;;;54.38;23.67;;;;;;;;;;4972582;28;20066;-61
2020/12/03 03:40:30;;;;;;;56.55;24.48;;;;;;;;;;4971962;28;20070;-60
2020/12/03 03:42:56;;;;;;;56.58;23.40;;;;;;;;;;4973586;28;20401;-61
2020/12/03 03:45:22;;;;;;;51.10;22.13;;;;;;;;;;4971423;28;20062;-61
2020/12/03 03:47:48;;;;;;;56.65;24.50;;;;;;;;;;4971947;28;20054;-61
2020/12/03 03:50:14;;;;;;;51.72;24.10;;;;;;;;;;4971777;28;20046;-61
2020/12/03 03:52:41;;;;;;;52.45;22.90;;;;;;;;;;4971299;28;20070;-61
2020/12/03 03:55:07;;;;;;;48.78;21.77;;;;;;;;;;4971698;28;20406;-61
2020/12/03 03:57:33;;;;;;;49.53;22.48;;;;;;;;;;4987296;28;20055;-61
2020/12/03 04:00:00;;;;;;;52.53;22.33;;;;;;;;;;4973216;28;20051;-60
2020/12/03 04:02:26;;;;;;;52.40;24.25;;;;;;;;;;4971643;28;20053;-60
2020/12/03 04:04:52;;;;;;;46.33;22.30;;;;;;;;;;4972170;28;20058;-60
2020/12/03 04:07:18;;;;;;;43.22;22.75;;;;;;;;;;4971034;28;20074;-61
2020/12/03 04:09:46;;;;;;;51.10;22.15;;;;;;;;;;4971411;28;20058;-61
2020/12/03 04:12:12;;;;;;;48.92;24.05;;;;;;;;;;4987907;28;20047;-61
2020/12/03 04:14:39;;;;;;;52.33;23.38;;;;;;;;;;4987546;28;20050;-61
2020/12/03 04:17:05;;;;;;;42.85;21.75;;;;;;;;;;4987107;28;20490;-61
2020/12/03 04:19:32;;;;;;;48.80;22.85;;;;;;;;;;4987590;28;20055;-61
2020/12/03 04:21:58;;;;;;;39.97;20.25;;;;;;;;;;4987705;28;20051;-61
2020/12/03 04:24:24;;;;;;;45.35;21.42;;;;;;;;;;4987234;28;20061;-61
2020/12/03 04:26:50;;;;;;;46.08;21.83;;;;;;;;;;4987024;28;20050;-61
2020/12/03 04:29:17;;;;;;;48.25;21.73;;;;;;;;;;4971109;28;20054;-61
2020/12/03 04:31:43;;;;;;;47.90;21.75;;;;;;;;;;4987447;28;20508;-61
2020/12/03 04:34:11;;;;;;;48.47;21.67;;;;;;;;;;4987485;28;20074;-61
2020/12/03 04:36:37;;;;;;;48.22;22.05;;;;;;;;;;4986731;28;20058;-61
2020/12/03 04:39:04;;;;;;;45.60;22.05;;;;;;;;;;4986944;28;20061;-61
2020/12/03 04:41:31;;;;;;;47.53;22.88;;;;;;;;;;4972141;28;20078;-61
2020/12/03 04:44:14;;;;;;;46.78;24.38;;;;;;;;;;4971344;28;20050;-60
2020/12/03 04:46:51;;;;;;;46.95;23.15;;;;;;;;;;4970640;28;20063;-61
2020/12/03 04:49:24;;;;;;;49.88;21.58;;;;;;;;;;4986778;28;20047;-61
2020/12/03 04:52:09;;;;;;;42.20;20.90;;;;;;;;;;4969560;28;20141;-62
2020/12/03 04:54:47;;;;;;;45.55;21.27;;;;;;;;;;4987113;28;20050;-61
2020/12/03 04:57:27;;;;;;;47.80;22.08;;;;;;;;;;4954670;28;20046;-61
2020/12/03 05:00:32;;;;;;;56.30;23.48;;;;;;;;;;4967537;28;20051;-60
2020/12/03 05:03:32;;;;;;;44.22;21.80;;;;;;;;;;4962085;28;20055;-61
2020/12/03 05:06:02;;;;;;;51.17;24.05;;;;;;;;;;4967384;28;20066;-61
2020/12/03 05:09:01;;;;;;;51.38;23.73;;;;;;;;;;4968529;28;20059;-61
2020/12/03 05:11:39;;;;;;;58.70;25.15;;;;;;;;;;4964108;28;20051;-61
2020/12/03 05:14:51;;;;;;;50.10;23.25;;;;;;;;;;4968007;28;20073;-61
2020/12/03 05:17:26;;;;;;;46.42;23.70;;;;;;;;;;4946882;29;20062;-61
2020/12/03 05:20:00;;;;;;;50.35;22.75;;;;;;;;;;4995528;28;20047;-61
2020/12/03 05:22:27;;;;;;;47.35;22.38;;;;;;;;;;5003286;28;20055;-62
2020/12/03 05:24:53;;;;;;;49.58;24.77;;;;;;;;;;5002969;28;20477;-62
2020/12/03 05:27:24;;;;;;;53.00;25.38;;;;;;;;;;5038439;22;20057;-61
2020/12/03 05:29:56;;;;;;;49.40;22.45;;;;;;;;;;5009565;28;20050;-61
2020/12/03 05:32:22;;;;;;;50.58;22.73;;;;;;;;;;5009738;28;20669;-61
2020/12/03 05:34:49;;;;;;;51.20;23.92;;;;;;;;;;5009279;28;20136;-61
2020/12/03 05:37:15;;;;;;;48.88;22.63;;;;;;;;;;4993034;28;20054;-61
2020/12/03 05:39:47;;;;;;;55.25;22.65;;;;;;;;;;5011548;28;20058;-60
2020/12/03 05:42:16;;;;;;;50.90;23.88;;;;;;;;;;4997395;28;20057;-61
2020/12/03 05:44:58;;;;;;;48.42;22.75;;;;;;;;;;4996751;28;20054;-61
2020/12/03 05:47:34;;;;;;;47.88;21.98;;;;;;;;;;5012691;28;20073;-61
2020/12/03 05:50:04;;;;;;;44.30;20.33;;;;;;;;;;5013772;28;20076;-61
2020/12/03 05:52:30;;;;;;;42.42;20.23;;;;;;;;;;5012996;28;20050;-60
2020/12/03 05:55:11;;;;;;;45.45;21.33;;;;;;;;;;5013541;28;20062;-61
2020/12/03 05:57:42;;;;;;;44.13;20.55;;;;;;;;;;4996083;28;20042;-61
2020/12/03 06:00:11;;;;;;;45.67;21.10;;;;;;;;;;5012981;28;20053;-61
2020/12/03 06:02:55;;;;;;;38.08;20.30;;;;;;;;;;5012945;28;20060;-60
2020/12/03 06:05:30;;;;;;;43.72;20.27;;;;;;;;;;5012910;28;20053;-60
2020/12/03 06:08:12;;;;;;;41.33;20.02;;;;;;;;;;5013020;28;20042;-62
2020/12/03 06:10:58;;;;;;;38.85;19.60;;;;;;;;;;4982192;28;20554;-62
2020/12/03 06:14:03;;;;;;;41.42;19.92;;;;;;;;;;5013199;28;20050;-61
2020/12/03 06:16:45;;;;;;;39.13;18.63;;;;;;;;;;5000137;28;20069;-60
2020/12/03 06:19:38;;;;;;;40.03;19.60;;;;;;;;;;5012216;28;20515;-61
2020/12/03 06:22:11;;;;;;;36.22;18.25;;;;;;;;;;5013006;28;20077;-60
2020/12/03 06:25:08;;;;;;;32.72;18.60;;;;;;;;;;4997057;28;20049;-60
2020/12/03 06:27:34;;;;;;;35.42;17.23;;;;;;;;;;5011656;28;20045;-59
2020/12/03 06:30:18;;;;;;;39.40;17.15;;;;;;;;;;5012864;28;20050;-60
2020/12/03 06:33:01;;;;;;;30.40;16.45;;;;;;;;;;4996762;28;20077;-61
2020/12/03 06:35:30;;;;;;;36.38;17.48;;;;;;;;;;4995639;28;20050;-60
2020/12/03 06:38:16;;;;;;;33.95;17.00;;;;;;;;;;5012245;28;20492;-60
2020/12/03 06:40:46;;;;;;;31.35;16.40;;;;;;;;;;4996074;28;20054;-60
2020/12/03 06:43:31;;;;;;;35.08;18.15;;;;;;;;;;4996392;28;20046;-60
2020/12/03 06:46:17;;;;;;;40.35;18.80;;;;;;;;;;5011855;28;20054;-60
2020/12/03 06:49:08;;;;;;;39.90;20.88;;;;;;;;;;4996730;28;20061;-60
2020/12/03 06:51:52;;;;;;;42.10;20.02;;;;;;;;;;5011031;28;20057;-59
2020/12/03 06:54:26;;;;;;;40.63;19.63;;;;;;;;;;5012342;28;20411;-60
2020/12/03 06:57:14;;;;;;;34.00;17.35;;;;;;;;;;5011412;28;20484;-61
2020/12/03 07:00:02;;;;;;;33.90;17.65;;;;;;;;;;4992293;28;20050;-60
2020/12/03 07:02:41;;;;;;;33.35;17.00;;;;;;;;;;4992235;28;20057;-59
2020/12/03 07:05:39;;;;;;;35.28;18.95;;;;;;;;;;4992165;28;20493;-60
2020/12/03 07:08:27;;;;;;;35.20;17.15;;;;;;;;;;5000073;28;20052;-59
2020/12/03 07:11:40;;;;;;;34.75;15.57;;;;;;;;;;5012270;28;20411;-60
2020/12/03 07:14:36;;;;;;;30.05;14.90;;;;;;;;;;5008185;28;20058;-59
2020/12/03 07:17:11;;;;;;;25.98;13.90;;;;;;;;;;4995317;28;20049;-60
2020/12/03 07:20:08;;;;;;;25.00;13.70;;;;;;;;;;4992084;28;20051;-60
2020/12/03 07:22:56;;;;;;;25.30;12.98;;;;;;;;;;4996942;28;20412;-61
2020/12/03 07:25:23;;;;;;;30.33;13.68;;;;;;;;;;5011171;28;20053;-60
2020/12/03 07:27:59;;;;;;;23.10;12.57;;;;;;;;;;5010931;28;20058;-60
2020/12/03 07:30:40;;;;;;;20.25;12.95;;;;;;;;;;5011580;28;20041;-61
2020/12/03 07:33:16;;;;;;;22.02;11.48;;;;;;;;;;5011439;28;20057;-60
2020/12/03 07:35:52;;;;;;;18.48;10.82;;;;;;;;;;5008419;28;20054;-60
2020/12/03 07:38:26;;;;;;;25.35;14.35;;;;;;;;;;5009515;28;20062;-61
2020/12/03 07:40:53;;;;;;;27.92;14.77;;;;;;;;;;4993875;28;20050;-62
2020/12/03 07:43:30;;;;;;;26.90;15.10;;;;;;;;;;4993456;28;20061;-62
2020/12/03 07:45:58;;;;;;;22.58;13.43;;;;;;;;;;5008530;28;20056;-61
2020/12/03 07:48:30;;;;;;;25.63;14.38;;;;;;;;;;4993135;28;20080;-62
2020/12/03 07:51:02;;;;;;;23.50;12.33;;;;;;;;;;5009280;28;20053;-61
2020/12/03 07:53:30;;;;;;;22.37;12.93;;;;;;;;;;5010520;28;20304;-61
2020/12/03 07:55:56;;;;;;;24.48;12.02;;;;;;;;;;5009606;28;20485;-62
2020/12/03 07:58:37;;;;;;;22.40;13.40;;;;;;;;;;5008886;28;20057;-61
2020/12/03 08:01:14;;;;;;;21.25;11.55;;;;;;;;;;5009118;28;20081;-60
2020/12/03 08:03:43;;;;;;;20.83;11.60;;;;;;;;;;4992904;28;20405;-61
2020/12/03 08:06:29;;;;;;;22.10;12.57;;;;;;;;;;5008404;28;20492;-61
2020/12/03 08:09:04;;;;;;;24.90;13.25;;;;;;;;;;5008526;28;20065;-61
2020/12/03 08:11:42;;;;;;;21.50;12.40;;;;;;;;;;5008823;28;20053;-61
2020/12/03 08:14:42;;;;;;;19.25;11.80;;;;;;;;;;5008889;28;20511;-60
2020/12/03 08:17:15;;;;;;;22.52;12.10;;;;;;;;;;4988577;28;20057;-59
2020/12/03 08:19:41;;;;;;;21.77;12.30;;;;;;;;;;4989986;28;20334;-60
2020/12/03 08:22:48;;;;;;;21.00;11.77;;;;;;;;;;4989390;28;20058;-60
2020/12/03 08:25:27;;;;;;;19.52;12.00;;;;;;;;;;4940938;28;20054;-59
2020/12/03 08:28:02;;;;;;;21.35;12.60;;;;;;;;;;4943569;28;20085;-59
2020/12/03 08:30:38;;;;;;;21.98;11.60;;;;;;;;;;4986656;28;20072;-59
2020/12/03 08:33:08;;;;;;;21.23;11.52;;;;;;;;;;5008585;28;20507;-59
2020/12/03 08:35:35;;;;;;;22.27;12.60;;;;;;;;;;5007622;28;20065;-59
2020/12/03 08:38:03;;;;;;;23.33;12.18;;;;;;;;;;5003341;28;20057;-54
2020/12/03 08:40:32;;;;;;;21.85;12.85;;;;;;;;;;5016029;28;20054;-59
2020/12/03 08:43:09;;;;;;;20.67;11.77;;;;;;;;;;4993834;28;20137;-59
2020/12/03 08:45:48;;;;;;;19.10;10.02;;;;;;;;;;4996235;28;20049;-59
2020/12/03 08:48:16;;;;;;;14.27;7.70;;;;;;;;;;5002250;28;20058;-59
2020/12/03 08:50:43;;;;;;;12.90;7.95;;;;;;;;;;4966625;28;20586;-60
2020/12/03 08:53:10;;;;;;;17.95;8.77;;;;;;;;;;4997999;28;20077;-59
2020/12/03 08:55:40;;;;;;;22.90;10.10;;;;;;;;;;5010848;28;20050;-60
2020/12/03 08:58:08;;;;;;;20.65;11.20;;;;;;;;;;4995101;28;20282;-59
2020/12/03 09:04:25;;;;;;;16.98;10.45;;;;;;;;;;5000654;23;20538;-59
2020/12/03 09:06:52;;;;;;;17.77;10.50;;;;;;;;;;4999767;28;20054;-63
2020/12/03 09:09:19;;;;;;;17.33;10.90;;;;;;;;;;4996927;28;20137;-62
2020/12/03 09:11:46;;;;;;;15.85;9.00;;;;;;;;;;5014783;28;20049;-60
2020/12/03 09:14:13;;;;;;;15.40;9.85;;;;;;;;;;5012763;28;20061;-58
2020/12/03 09:16:40;;;;;;;17.58;10.40;;;;;;;;;;4995924;28;20054;-59
2020/12/03 09:19:06;;;;;;;16.83;9.52;;;;;;;;;;4997481;28;20054;-59
2020/12/03 09:21:32;;;;;;;15.68;9.35;;;;;;;;;;4995373;28;20050;-59
2020/12/03 09:23:59;;;;;;;16.52;10.18;;;;;;;;;;4968282;28;20058;-59
2020/12/03 09:26:29;;;;;;;16.70;9.57;;;;;;;;;;4998500;28;20069;-61
2020/12/03 09:28:56;;;;;;;14.05;9.27;;;;;;;;;;4980324;28;20045;-61
2020/12/03 09:31:25;;;;;;;17.45;9.93;;;;;;;;;;5011079;28;20050;-61
2020/12/03 09:33:52;;;;;;;17.17;10.65;;;;;;;;;;5004896;28;20045;-61
2020/12/03 09:36:18;;;;;;;20.60;11.07;;;;;;;;;;5000612;28;20038;-61
2020/12/03 09:38:48;;;;;;;20.63;11.77;;;;;;;;;;4995648;28;20054;-61
2020/12/03 09:41:21;;;;;;;22.58;12.15;;;;;;;;;;4989139;28;20500;-61
2020/12/03 09:43:50;;;;;;;20.38;11.77;;;;;;;;;;5015323;28;20054;-61
2020/12/03 09:46:22;;;;;;;22.58;11.57;;;;;;;;;;4973519;28;20129;-61
2020/12/03 09:48:50;;;;;;;17.13;11.38;;;;;;;;;;4997795;28;20505;-61
2020/12/03 09:51:21;;;;;;;19.80;12.07;;;;;;;;;;4994887;28;20050;-61
2020/12/03 09:53:49;;;;;;;22.08;12.48;;;;;;;;;;4997950;28;20054;-61
2020/12/03 09:56:17;;;;;;;22.23;11.75;;;;;;;;;;4999310;28;20038;-62
2020/12/03 09:58:43;;;;;;;16.90;10.75;;;;;;;;;;4997089;28;20054;-60
2020/12/03 10:01:09;;;;;;;16.90;11.07;;;;;;;;;;4995762;28;20046;-60
2020/12/03 10:04:02;;;;;;;15.70;10.52;;;;;;;;;;4998156;28;20050;-60
2020/12/03 10:06:39;;;;;;;14.70;10.15;;;;;;;;;;4995025;28;20497;-60
2020/12/03 10:09:46;;;;;;;17.58;10.57;;;;;;;;;;4994363;28;20490;-60
2020/12/03 10:12:44;;;;;;;18.15;9.88;;;;;;;;;;4967854;28;20417;-62
2020/12/03 10:15:16;;;;;;;14.25;9.63;;;;;;;;;;4985071;28;20050;-61
2020/12/03 10:17:52;;;;;;;;;;;;;;;;;;4988507;28;20112;-62
2020/12/03 10:20:19;;;;;;;18.08;10.23;;;;;;;;;;5013799;28;20008;-63
2020/12/03 10:23:09;;;;;;;15.40;9.35;;;;;;;;;;4997684;28;20054;-62
2020/12/03 10:25:35;;;;;;;20.08;11.25;;;;;;;;;;4980612;28;20050;-62
2020/12/03 10:28:24;;;;;;;16.10;10.02;;;;;;;;;;4983690;28;20054;-61
2020/12/03 10:30:55;;;;;;;17.73;10.77;;;;;;;;;;4988831;28;20069;-62
2020/12/03 10:33:24;;;;;;;16.58;9.55;;;;;;;;;;4998541;28;20050;-61
2020/12/03 10:35:51;;;;;;;16.60;10.27;;;;;;;;;;4989764;28;20053;-61
2020/12/03 10:38:26;;;;;;;16.27;9.95;;;;;;;;;;5000100;28;20050;-62
2020/12/03 10:40:55;;;;;;;18.95;10.90;;;;;;;;;;5004088;28;20511;-62
2020/12/03 10:43:29;;;;;;;19.17;9.63;;;;;;;;;;5000244;28;20054;-61
2020/12/03 10:45:59;;;;;;;16.30;9.07;;;;;;;;;;5022523;28;20058;-61
2020/12/03 10:48:28;;;;;;;12.35;8.50;;;;;;;;;;5011422;28;20519;-61
2020/12/03 10:50:59;;;;;;;15.13;9.57;;;;;;;;;;5009813;28;20042;-60
2020/12/03 10:53:28;;;;;;;14.00;8.73;;;;;;;;;;4993596;28;20057;-61
2020/12/03 10:56:05;;;;;;;15.25;9.63;;;;;;;;;;5011782;28;20057;-62
2020/12/03 10:58:34;;;;;;;14.57;9.45;;;;;;;;;;5012250;28;20049;-61
2020/12/03 11:01:05;;;;;;;14.07;8.88;;;;;;;;;;5011822;28;20392;-61
2020/12/03 11:03:31;;;;;;;15.15;8.75;;;;;;;;;;5011971;28;20046;-62
2020/12/03 11:05:58;;;;;;;14.27;8.45;;;;;;;;;;4992162;28;20047;-61
2020/12/03 11:08:24;;;;;;;12.40;7.68;;;;;;;;;;5010088;28;20061;-61
2020/12/03 11:10:54;;;;;;;13.90;8.35;;;;;;;;;;5009893;28;20279;-61
2020/12/03 11:13:20;;;;;;;12.32;8.25;;;;;;;;;;5010384;28;20058;-61
2020/12/03 11:15:48;;;;;;;13.98;8.00;;;;;;;;;;5009547;28;20408;-62
2020/12/03 11:18:21;;;;;;;13.02;8.00;;;;;;;;;;5009370;28;20045;-62
2020/12/03 11:20:58;;;;;;;14.90;8.75;;;;;;;;;;4994213;28;20069;-62
2020/12/03 11:23:28;;;;;;;12.23;8.48;;;;;;;;;;4993499;28;20492;-61
2020/12/03 11:28:39;;;;;;;13.32;8.75;;;;;;;;;;4977533;23;20058;-61
2020/12/03 11:31:10;;;;;;;11.63;7.55;;;;;;;;;;4956660;28;20058;-63
2020/12/03 11:33:39;;;;;;;13.82;8.48;;;;;;;;;;4962194;28;20058;-62
2020/12/03 11:36:09;;;;;;;12.70;8.57;;;;;;;;;;4974037;28;20058;-61
2020/12/03 11:38:35;;;;;;;16.67;8.65;;;;;;;;;;4959109;28;20059;-62
2020/12/03 11:41:13;;;;;;;10.65;7.47;;;;;;;;;;4956999;28;20432;-62
2020/12/03 11:43:53;;;;;;;12.13;8.40;;;;;;;;;;4972851;28;20137;-62
2020/12/03 11:49:09;;;;;;;15.93;8.48;;;;;;;;;;4960920;28;20054;-62
2020/12/03 11:51:36;;;;;;;15.07;7.97;;;;;;;;;;4955129;28;20039;-62
2020/12/03 11:54:02;;;;;;;11.55;7.68;;;;;;;;;;4955023;28;20062;-63
2020/12/03 11:56:29;;;;;;;10.40;6.90;;;;;;;;;;4958573;28;20051;-64
2020/12/03 11:59:14;;;;;;;9.00;6.70;;;;;;;;;;4975475;28;20485;-63
2020/12/03 12:02:17;;;;;;;8.77;6.25;;;;;;;;;;4957765;28;20380;-64
2020/12/03 12:07:54;;;;;;;12.68;6.50;;;;;;;;;;4950557;28;20129;-63
2020/12/03 12:10:31;;;;;;;14.82;7.82;;;;;;;;;;4956104;28;20050;-62
2020/12/03 12:12:58;;;;;;;10.95;6.40;;;;;;;;;;4962090;28;20047;-62
2020/12/03 12:15:24;;;;;;;10.32;6.53;;;;;;;;;;4959305;28;20083;-62
2020/12/03 12:17:50;;;;;;;9.15;6.43;;;;;;;;;;4962033;28;20069;-63
2020/12/03 12:20:17;;;;;;;8.48;5.68;;;;;;;;;;4973694;28;20055;-62
2020/12/03 12:22:43;;;;;;;10.18;5.40;;;;;;;;;;4962846;28;20050;-63
2020/12/03 12:25:10;;;;;;;13.32;7.40;;;;;;;;;;4974661;28;20050;-62
2020/12/03 12:27:36;;;;;;;14.63;7.20;;;;;;;;;;4977910;28;20062;-61
2020/12/03 12:30:03;;;;;;;11.52;6.20;;;;;;;;;;4958084;28;20058;-63
2020/12/03 12:32:29;;;;;;;9.88;5.88;;;;;;;;;;4958188;28;20046;-61
2020/12/03 12:34:55;;;;;;;10.68;6.60;;;;;;;;;;4975729;28;20051;-63
2020/12/03 12:37:21;;;;;;;9.45;5.95;;;;;;;;;;4963915;28;20057;-63
2020/12/03 12:39:47;;;;;;;9.02;6.03;;;;;;;;;;4974287;28;20047;-62
2020/12/03 12:42:14;;;;;;;8.38;5.82;;;;;;;;;;4944723;28;20051;-62
2020/12/03 12:44:40;;;;;;;11.70;5.95;;;;;;;;;;4974474;28;20054;-62
2020/12/03 12:47:06;;;;;;;10.02;6.32;;;;;;;;;;4965332;28;20127;-62
2020/12/03 12:49:33;;;;;;;9.27;6.43;;;;;;;;;;4975127;28;20058;-62
2020/12/03 12:51:59;;;;;;;11.38;6.03;;;;;;;;;;4959570;28;20069;-63
2020/12/03 12:54:25;;;;;;;10.45;6.93;;;;;;;;;;4960090;28;20050;-62
2020/12/03 12:56:53;;;;;;;8.48;5.78;;;;;;;;;;4973840;28;20058;-63
2020/12/03 12:59:19;;;;;;;13.20;6.88;;;;;;;;;;4977133;28;20070;-62
2020/12/03 13:01:50;;;;;;;8.48;5.47;;;;;;;;;;4972669;28;20055;-63
2020/12/03 13:04:17;;;;;;;9.65;6.10;;;;;;;;;;4962486;28;20039;-64
2020/12/03 13:06:43;;;;;;;10.18;5.97;;;;;;;;;;4970633;28;20087;-63
2020/12/03 13:09:11;;;;;;;8.82;5.75;;;;;;;;;;4974807;28;20057;-63
2020/12/03 13:11:37;;;;;;;10.38;5.60;;;;;;;;;;4974908;28;20043;-61
2020/12/03 13:14:09;;;;;;;8.70;5.85;;;;;;;;;;4960251;28;20502;-62
2020/12/03 13:16:36;;;;;;;8.98;5.82;;;;;;;;;;4976601;28;20043;-61
2020/12/03 13:19:04;;;;;;;9.65;6.22;;;;;;;;;;4959672;28;20057;-62
2020/12/03 13:21:31;;;;;;;7.65;5.03;;;;;;;;;;4959723;28;20090;-63
2020/12/03 13:23:58;;;;;;;9.13;6.30;;;;;;;;;;4974745;28;20051;-62
2020/12/03 13:26:25;;;;;;;8.77;5.97;;;;;;;;;;4959541;28;20051;-63
2020/12/03 13:28:51;;;;;;;8.52;5.78;;;;;;;;;;4957026;28;20052;-63
2020/12/03 13:31:17;;;;;;;10.13;6.45;;;;;;;;;;4959911;28;20474;-63
2020/12/03 13:33:43;;;;;;;12.10;6.22;;;;;;;;;;4970896;28;20051;-62
2020/12/03 13:36:10;;;;;;;9.27;5.78;;;;;;;;;;4973370;28;20046;-62
2020/12/03 13:38:36;;;;;;;8.27;5.70;;;;;;;;;;4972895;28;20488;-61
2020/12/03 13:41:03;;;;;;;8.80;6.32;;;;;;;;;;4974355;28;20054;-62
2020/12/03 13:43:30;;;;;;;8.95;5.95;;;;;;;;;;4972474;28;20141;-62
2020/12/03 13:45:58;;;;;;;10.60;6.20;;;;;;;;;;4959918;28;20431;-64
2020/12/03 13:48:26;;;;;;;8.35;5.25;;;;;;;;;;4960926;28;20050;-63
2020/12/03 13:50:53;;;;;;;9.50;6.18;;;;;;;;;;4974703;28;20518;-61
2020/12/03 13:53:19;;;;;;;11.18;6.35;;;;;;;;;;4973371;28;20398;-62
2020/12/03 13:55:45;;;;;;;9.48;6.30;;;;;;;;;;4948786;28;20050;-61
2020/12/03 13:58:11;;;;;;;8.05;5.28;;;;;;;;;;4976408;28;20043;-62
2020/12/03 14:00:38;;;;;;;8.07;5.80;;;;;;;;;;4962500;28;20063;-61
2020/12/03 14:03:04;;;;;;;10.50;6.38;;;;;;;;;;4963313;28;20042;-63
2020/12/03 14:05:30;;;;;;;9.68;6.40;;;;;;;;;;4971252;28;20051;-63
2020/12/03 14:07:57;;;;;;;8.05;5.65;;;;;;;;;;4977638;28;20039;-64
2020/12/03 14:10:23;;;;;;;10.20;5.60;;;;;;;;;;4975840;28;20055;-63
2020/12/03 14:12:49;;;;;;;10.60;5.97;;;;;;;;;;4958728;28;20054;-62
2020/12/03 14:15:15;;;;;;;9.85;5.95;;;;;;;;;;4978086;28;20055;-63
2020/12/03 14:17:42;;;;;;;7.15;5.22;;;;;;;;;;4960998;28;20059;-62
2020/12/03 14:20:08;;;;;;;10.63;6.75;;;;;;;;;;4959318;28;20066;-62
2020/12/03 14:22:34;;;;;;;12.77;6.60;;;;;;;;;;4962253;28;20050;-62
2020/12/03 14:25:01;;;;;;;8.85;5.53;;;;;;;;;;4976119;28;20150;-62
2020/12/03 14:27:27;;;;;;;12.05;6.68;;;;;;;;;;4965178;28;20055;-62
2020/12/03 14:29:53;;;;;;;9.65;5.78;;;;;;;;;;4959272;28;20051;-61
2020/12/03 14:32:19;;;;;;;9.60;5.63;;;;;;;;;;4979737;28;20046;-63
2020/12/03 14:34:46;;;;;;;9.75;5.85;;;;;;;;;;4974958;28;20066;-61
2020/12/03 14:37:12;;;;;;;9.88;6.47;;;;;;;;;;4963675;28;20053;-61
2020/12/03 14:39:39;;;;;;;11.77;6.45;;;;;;;;;;4974633;28;20063;-61
2020/12/03 14:42:05;;;;;;;8.10;6.28;;;;;;;;;;4954786;28;20054;-62
2020/12/03 14:44:32;;;;;;;9.93;6.22;;;;;;;;;;4960390;28;20086;-62
2020/12/03 14:46:58;;;;;;;10.75;6.38;;;;;;;;;;4961438;28;20077;-62
2020/12/03 14:49:25;;;;;;;9.77;6.53;;;;;;;;;;4961230;28;20105;-61
2020/12/03 14:52:02;;;;;;;11.18;6.22;;;;;;;;;;4958013;28;20757;-62
2020/12/03 14:54:30;;;;;;;12.95;7.15;;;;;;;;;;4976508;28;20053;-62
2020/12/03 14:57:01;;;;;;;13.65;7.13;;;;;;;;;;4972222;28;20398;-62
2020/12/03 14:59:27;;;;;;;14.02;7.45;;;;;;;;;;4959485;28;20047;-62
2020/12/03 15:05:07;;;;;;;13.43;7.35;;;;;;;;;;4969440;23;20077;-63
2020/12/03 15:07:34;;;;;;;12.77;7.85;;;;;;;;;;5004142;28;20054;-63
2020/12/03 15:10:06;;;;;;;12.63;7.72;;;;;;;;;;5016626;28;20054;-61